Kezdőlap
METAR-TAF:

METAR-TAF

Repülőterek :

Passo Rolle, Olaszország

földrajzi szélesség: 46-18N, földrajzi hosszúság: 011-47E, magasság: 2004 m

Jelenlegi meteorológiai megfigyelések

A jelentés 28 perccel ezelõtt készült, 07:55 UTC
Észak-északnyugati szél 3 kt
Hőmérséklet -5°C
Páratartalom 68%
Légköri nyomás 1008 hPa
Látótávolság 10 km, vagy több
felhőtlen 1500 m magasságban, és nincs gomolyfelhõ

METAR: LIVR 280755Z 34003KT CAVOK M05/M10 Q1008 RMK FEW FEW160 MON LIB VIS MIN 9999

Idő: 09:23 (08:23 UTC)


TAF: hiányzik

Meteorológiai megfigyelések és előrejelzések több, mint 4000 repülőtéren (METAR és TAF jelentéseket).

A térképen piros és sárga pontok jelzik az elérhető meteorológiai állomásokat.

Mozgassa az egeret a pont fölött, hogy megjelenjen az állomás neve.

Azután kattintson az időjárási megfigyelések és előrejelzések megtekintéséhez.

A térkép megváltoztatása: kattintson a fekete keresztel jelölt zöld gombra ráközelítéshez, a vonallal jelölt zöld gombra távolításhoz, vagy a zöld nyilakra a szomszédos térképek eléréséhez.


METAR-TAF: